Time;durP1;ratioP1;P1;durP2;ratioP2;P2;SDS_P1;SDS_P2;PMS_P1;PMS_P2;Temp;Humidity;BMP_temperature;BMP_pressure;BME280_temperature;BME280_humidity;BME280_pressure;Samples;Min_cycle;Max_cycle;Signal;HPM_P1;HPM_P2
2022/07/01 00:01:54;;;;;;;20.58;9.70;;;21.40;99.90;;;;;;4398601;28;658076;-63
2022/07/01 00:04:41;;;;;;;12.67;9.17;;;21.40;99.90;;;;;;4375018;28;657831;-62
2022/07/01 00:07:29;;;;;;;12.37;9.57;;;21.30;99.90;;;;;;4392017;28;659331;-62
2022/07/01 00:10:17;;;;;;;12.57;9.37;;;21.20;99.90;;;;;;4377646;28;658422;-62
2022/07/01 00:13:04;;;;;;;20.10;9.37;;;21.20;99.90;;;;;;4393744;28;658481;-62
2022/07/01 00:15:51;;;;;;;16.70;9.13;;;21.10;99.90;;;;;;4370999;28;658352;-63
2022/07/01 00:18:38;;;;;;;22.47;9.83;;;21.20;99.90;;;;;;4400722;28;658528;-63
2022/07/01 00:21:25;;;;;;;20.13;10.03;;;21.20;99.90;;;;;;4375181;28;658352;-64
2022/07/01 00:24:14;;;;;;;19.07;9.80;;;21.20;99.90;;;;;;4396430;28;659615;-63
2022/07/01 00:27:01;;;;;;;14.70;10.20;;;21.10;99.90;;;;;;4372053;28;658107;-63
2022/07/01 00:29:48;;;;;;;19.33;9.40;;;21.10;99.90;;;;;;4401629;28;659499;-64
2022/07/01 00:32:35;;;;;;;16.43;9.47;;;21.10;99.90;;;;;;4393664;28;657343;-64
2022/07/01 00:35:22;;;;;;;13.53;9.47;;;21.10;99.90;;;;;;4411765;28;658763;-63
2022/07/01 00:38:10;;;;;;;17.67;9.80;;;21.00;99.90;;;;;;4406441;28;657604;-64
2022/07/01 00:40:59;;;;;;;17.03;9.30;;;20.90;99.90;;;;;;4412536;28;659092;-63
2022/07/01 00:43:46;;;;;;;13.37;10.00;;;20.90;99.90;;;;;;4393215;28;657642;-63
2022/07/01 00:46:33;;;;;;;15.10;9.30;;;20.80;99.90;;;;;;4416278;28;659395;-63
2022/07/01 00:49:20;;;;;;;15.73;9.60;;;20.80;99.90;;;;;;4399720;28;657515;-64
2022/07/01 00:52:08;;;;;;;15.87;10.20;;;20.80;99.90;;;;;;4413974;28;657613;-63
2022/07/01 00:54:55;;;;;;;14.77;9.77;;;20.70;99.90;;;;;;4388164;28;658957;-64
2022/07/01 00:57:44;;;;;;;24.50;10.07;;;20.70;99.90;;;;;;4412385;28;659259;-63
2022/07/01 01:00:31;;;;;;;16.83;9.23;;;20.70;99.90;;;;;;4386290;28;658948;-63
2022/07/01 01:03:18;;;;;;;15.80;9.30;;;20.70;99.90;;;;;;4410989;28;658694;-63
2022/07/01 01:06:05;;;;;;;12.93;9.70;;;20.70;99.90;;;;;;4393249;28;658621;-63
2022/07/01 01:08:53;;;;;;;20.27;10.23;;;20.60;99.90;;;;;;4410409;28;657914;-63
2022/07/01 01:11:40;;;;;;;18.87;10.17;;;20.70;99.90;;;;;;4400112;28;658618;-65
2022/07/01 01:14:28;;;;;;;17.63;9.67;;;20.60;99.90;;;;;;4413279;28;659593;-63
2022/07/01 01:17:16;;;;;;;19.87;9.53;;;20.60;99.90;;;;;;4391886;28;657650;-64
2022/07/01 01:20:03;;;;;;;17.50;9.57;;;20.60;99.90;;;;;;4414772;28;657457;-63
2022/07/01 01:22:52;;;;;;;15.37;10.03;;;20.50;99.90;;;;;;4393073;28;657748;-63
2022/07/01 01:25:39;;;;;;;13.67;9.63;;;20.50;99.90;;;;;;4410602;28;658828;-63
2022/07/01 01:28:26;;;;;;;20.00;9.90;;;20.40;99.90;;;;;;4387897;28;657560;-63
2022/07/01 01:31:13;;;;;;;17.03;9.53;;;20.30;99.90;;;;;;4397965;28;658438;-63
2022/07/01 01:34:01;;;;;;;18.17;10.00;;;20.30;99.90;;;;;;4372030;28;657586;-63
2022/07/01 01:36:48;;;;;;;17.53;10.03;;;20.20;99.90;;;;;;4396312;28;659238;-63
2022/07/01 01:39:37;;;;;;;17.90;10.07;;;20.10;99.90;;;;;;4381523;28;659146;-65
2022/07/01 01:42:24;;;;;;;22.57;9.73;;;20.10;99.90;;;;;;4391337;28;659080;-63
2022/07/01 01:45:11;;;;;;;16.93;10.23;;;20.00;99.90;;;;;;4372034;28;657435;-65
2022/07/01 01:47:58;;;;;;;20.47;9.40;;;20.10;99.90;;;;;;4391173;28;659031;-63
2022/07/01 01:50:46;;;;;;;13.93;9.73;;;20.00;99.90;;;;;;4375869;28;657676;-63
2022/07/01 01:53:33;;;;;;;14.77;9.27;;;20.00;99.90;;;;;;4395830;28;657314;-63
2022/07/01 01:56:21;;;;;;;14.57;9.63;;;20.00;99.90;;;;;;4386229;28;658124;-65
2022/07/01 01:59:08;;;;;;;13.20;8.73;;;20.00;99.90;;;;;;4398007;28;658130;-63
2022/07/01 02:01:56;;;;;;;15.10;9.33;;;19.90;99.90;;;;;;4372077;28;657372;-63
2022/07/01 02:04:43;;;;;;;13.70;9.50;;;19.90;99.90;;;;;;4397699;28;658957;-63
2022/07/01 02:07:30;;;;;;;19.13;9.77;;;19.90;99.90;;;;;;4385149;28;657283;-64
2022/07/01 02:10:18;;;;;;;12.77;9.30;;;19.90;99.90;;;;;;4393612;28;657683;-63
2022/07/01 02:13:06;;;;;;;12.47;9.57;;;19.90;99.90;;;;;;4383763;28;657526;-64
2022/07/01 02:15:54;;;;;;;19.03;9.93;;;19.90;99.90;;;;;;4391779;28;657762;-63
2022/07/01 02:18:41;;;;;;;13.17;9.13;;;19.80;99.90;;;;;;4370417;28;657603;-63
2022/07/01 02:21:28;;;;;;;17.63;9.83;;;19.80;99.90;;;;;;4392121;28;658192;-63
2022/07/01 02:24:15;;;;;;;11.03;8.73;;;19.80;99.90;;;;;;4371367;28;657763;-64
2022/07/01 02:27:03;;;;;;;13.63;9.03;;;19.70;99.90;;;;;;4390106;28;659082;-63
2022/07/01 02:29:51;;;;;;;14.97;8.97;;;19.70;99.90;;;;;;4387499;28;657503;-65
2022/07/01 02:32:39;;;;;;;16.37;9.90;;;19.70;99.90;;;;;;4411601;28;657997;-63
2022/07/01 02:35:26;;;;;;;13.37;9.63;;;19.60;99.90;;;;;;4393915;28;657520;-63
2022/07/01 02:38:13;;;;;;;14.77;9.60;;;19.50;99.90;;;;;;4415256;28;657592;-63
2022/07/01 02:41:00;;;;;;;13.53;8.97;;;19.50;99.90;;;;;;4396022;28;657739;-64
2022/07/01 02:43:47;;;;;;;19.67;8.27;;;19.50;99.90;;;;;;4416070;28;658805;-63
2022/07/01 02:46:36;;;;;;;15.50;9.60;;;19.50;99.90;;;;;;4413513;28;657995;-63
2022/07/01 02:49:23;;;;;;;14.53;9.17;;;19.40;99.90;;;;;;4388569;28;658871;-63
2022/07/01 02:52:10;;;;;;;18.87;9.80;;;19.40;99.90;;;;;;4397058;28;657537;-64
2022/07/01 02:54:57;;;;;;;14.80;9.40;;;19.40;99.90;;;;;;4414349;28;658283;-63
2022/07/01 02:57:44;;;;;;;15.93;9.33;;;19.40;99.90;;;;;;4413847;28;658180;-63
2022/07/01 03:00:31;;;;;;;17.83;9.97;;;19.50;99.90;;;;;;4390451;28;657734;-63
2022/07/01 03:03:20;;;;;;;13.70;9.20;;;19.50;99.90;;;;;;4413332;28;658946;-63
2022/07/01 03:06:07;;;;;;;19.63;9.33;;;19.60;99.90;;;;;;4392634;28;659306;-63
2022/07/01 03:08:55;;;;;;;15.57;9.10;;;19.70;99.90;;;;;;4410546;28;658006;-63
2022/07/01 03:11:42;;;;;;;15.27;8.77;;;19.70;99.90;;;;;;4391079;28;658570;-63
2022/07/01 03:14:30;;;;;;;15.93;8.70;;;19.80;99.90;;;;;;4408100;28;657537;-65
2022/07/01 03:17:17;;;;;;;14.43;8.40;;;19.90;99.90;;;;;;4414538;28;657402;-63
2022/07/01 03:20:07;;;;;;;14.70;9.07;;;19.90;99.90;;;;;;4410276;28;658430;-63
2022/07/01 03:22:54;;;;;;;16.30;9.37;;;19.90;99.90;;;;;;4387351;28;657707;-63
2022/07/01 03:25:41;;;;;;;12.60;9.07;;;19.90;99.90;;;;;;4392357;28;657501;-63
2022/07/01 03:28:28;;;;;;;14.70;8.63;;;19.90;99.90;;;;;;4410727;28;659305;-62
2022/07/01 03:31:15;;;;;;;16.97;9.87;;;19.90;99.90;;;;;;4388037;28;657299;-64
2022/07/01 03:34:02;;;;;;;17.17;8.90;;;20.00;99.90;;;;;;4415309;28;658569;-63
2022/07/01 03:36:51;;;;;;;12.60;9.13;;;20.10;99.90;;;;;;4411453;28;657499;-63
2022/07/01 03:39:38;;;;;;;14.47;8.53;;;20.20;99.90;;;;;;4390001;28;658636;-63
2022/07/01 03:42:25;;;;;;;13.27;8.53;;;20.20;99.90;;;;;;4390241;28;657490;-63
2022/07/01 03:45:12;;;;;;;11.57;8.90;;;20.30;99.90;;;;;;4409776;28;659094;-63
2022/07/01 03:48:00;;;;;;;13.13;8.70;;;20.30;99.90;;;;;;4408353;28;657587;-64
2022/07/01 03:50:47;;;;;;;11.82;9.05;;;20.40;99.90;;;;;;4415767;28;658449;-63
2022/07/01 03:56:40;;;;;;;14.00;8.60;;;20.50;99.90;;;;;;4372835;28;657773;-64
2022/07/01 03:59:28;;;;;;;11.53;8.37;;;20.50;99.90;;;;;;4412636;28;659090;-63
2022/07/01 04:02:15;;;;;;;13.87;8.90;;;20.60;99.90;;;;;;4406522;28;658798;-64
2022/07/01 04:05:02;;;;;;;12.80;8.30;;;20.70;99.90;;;;;;4418638;28;658500;-63
2022/07/01 04:07:49;;;;;;;13.93;8.63;;;20.90;99.90;;;;;;4418450;28;657533;-63
2022/07/01 04:10:38;;;;;;;12.17;8.63;;;20.90;99.90;;;;;;4397560;28;658060;-64
2022/07/01 04:13:25;;;;;;;17.23;8.60;;;21.00;99.90;;;;;;4399338;28;657558;-64
2022/07/01 04:16:12;;;;;;;12.10;8.10;;;21.10;99.90;;;;;;4425218;28;657677;-65
2022/07/01 04:18:59;;;;;;;9.73;8.03;;;21.30;99.90;;;;;;4417646;28;658261;-63
2022/07/01 04:24:51;;;;;;;13.63;8.27;;;21.40;99.90;;;;;;4392934;28;657609;-64
2022/07/01 04:27:40;;;;;;;10.60;7.90;;;21.60;99.90;;;;;;4419701;28;658830;-63
2022/07/01 04:30:27;;;;;;;12.20;7.50;;;21.70;99.90;;;;;;4389640;28;659134;-63
2022/07/01 04:33:14;;;;;;;15.40;7.37;;;21.90;99.90;;;;;;4413873;28;658158;-65
2022/07/01 04:36:01;;;;;;;13.70;7.27;;;22.00;99.90;;;;;;4393314;28;658684;-63
2022/07/01 04:38:48;;;;;;;9.90;7.23;;;22.10;99.90;;;;;;4413899;28;658788;-63
2022/07/01 04:44:41;;;;;;;9.47;7.30;;;22.30;99.90;;;;;;4414029;28;658960;-64
2022/07/01 04:47:32;;;;;;;10.37;7.43;;;22.40;99.90;;;;;;4415301;28;657011;-64
2022/07/01 04:50:19;;;;;;;11.53;7.70;;;22.60;99.90;;;;;;4390048;28;657620;-64
2022/07/01 04:53:06;;;;;;;13.07;7.23;;;22.70;99.90;;;;;;4396486;28;657688;-64
2022/07/01 04:55:53;;;;;;;12.87;6.83;;;23.00;99.90;;;;;;4409384;28;658054;-64
2022/07/01 04:58:40;;;;;;;9.23;6.90;;;23.10;99.90;;;;;;4385283;28;658544;-65
2022/07/01 05:01:29;;;;;;;14.17;7.20;;;23.40;99.90;;;;;;4413902;28;657211;-64
2022/07/01 05:04:16;;;;;;;14.73;7.43;;;23.50;99.90;;;;;;4384540;28;657698;-64
2022/07/01 05:07:03;;;;;;;9.15;7.13;;;23.70;99.90;;;;;;4414856;28;657692;-64
2022/07/01 05:09:50;;;;;;;11.75;6.65;;;23.90;99.90;;;;;;4398223;28;656749;-64
2022/07/01 05:12:37;;;;;;;11.82;6.90;;;24.00;99.90;;;;;;4416556;28;658395;-63
2022/07/01 05:15:24;;;;;;;11.73;6.47;;;24.10;99.90;;;;;;4411183;28;657968;-64
2022/07/01 05:24:22;;;;;;;7.70;6.22;;;24.60;99.90;;;;;;4370417;28;657524;-64
2022/07/01 05:27:09;;;;;;;9.68;6.20;;;24.80;99.90;;;;;;4413705;28;656966;-64
2022/07/01 05:29:56;;;;;;;11.43;5.78;;;25.00;99.90;;;;;;4383089;28;657583;-64
2022/07/01 05:32:43;;;;;;;9.40;6.15;;;25.10;99.90;;;;;;4398800;28;658951;-64
2022/07/01 05:35:32;;;;;;;7.43;6.00;;;25.30;97.40;;;;;;4382229;28;656922;-64
2022/07/01 05:38:19;;;;;;;8.98;6.15;;;25.50;99.30;;;;;;4400426;28;657202;-65
2022/07/01 05:41:06;;;;;;;12.68;6.15;;;25.60;98.20;;;;;;4381366;28;656437;-64
2022/07/01 05:43:53;;;;;;;9.95;6.55;;;25.80;98.50;;;;;;4398376;28;658882;-64
2022/07/01 05:46:40;;;;;;;12.70;7.35;;;25.90;96.40;;;;;;4383278;28;656477;-65
2022/07/01 05:49:27;;;;;;;13.48;7.35;;;26.10;96.00;;;;;;4394923;28;658898;-64
2022/07/01 05:52:16;;;;;;;14.00;6.65;;;26.10;96.20;;;;;;4398570;28;657494;-65
2022/07/01 05:55:04;;;;;;;10.95;6.72;;;26.20;94.80;;;;;;4399903;28;656956;-64
2022/07/01 05:57:52;;;;;;;10.73;6.80;;;26.20;95.60;;;;;;4378622;28;658879;-64
2022/07/01 06:00:41;;;;;;;10.98;6.82;;;26.20;95.10;;;;;;4400226;28;658756;-63
2022/07/01 06:03:28;;;;;;;12.90;7.15;;;26.40;95.80;;;;;;4377046;28;659143;-64
2022/07/01 06:06:18;;;;;;;14.55;8.60;;;26.50;92.70;;;;;;4383171;28;657681;-66
2022/07/01 06:09:06;;;;;;;14.27;8.07;;;26.50;93.50;;;;;;4387131;28;657534;-65
2022/07/01 06:11:54;;;;;;;15.27;8.48;;;26.50;93.80;;;;;;4401542;28;657506;-64
2022/07/01 06:14:41;;;;;;;17.48;8.55;;;26.60;95.40;;;;;;4395661;28;657646;-64
2022/07/01 06:17:28;;;;;;;14.20;8.93;;;26.60;96.00;;;;;;4417217;28;659747;-64
2022/07/01 06:20:15;;;;;;;14.82;9.20;;;26.60;97.50;;;;;;4401067;28;657534;-65
2022/07/01 06:23:02;;;;;;;14.18;8.95;;;26.30;99.50;;;;;;4418626;28;658235;-64
2022/07/01 06:25:51;;;;;;;15.57;9.27;;;26.50;99.90;;;;;;4415137;28;657766;-64
2022/07/01 06:28:38;;;;;;;18.77;9.25;;;26.70;96.80;;;;;;4391999;28;658801;-64
2022/07/01 06:31:25;;;;;;;13.85;9.15;;;26.80;99.90;;;;;;4417621;28;657572;-65
2022/07/01 06:34:12;;;;;;;11.55;9.15;;;27.00;97.40;;;;;;4436323;28;658133;-64
2022/07/01 06:37:01;;;;;;;12.30;9.48;;;27.20;98.60;;;;;;4432042;28;657956;-64
2022/07/01 06:39:48;;;;;;;16.48;9.73;;;27.20;97.30;;;;;;4408839;28;658680;-64
2022/07/01 06:42:37;;;;;;;14.60;9.23;;;27.30;97.80;;;;;;4412971;28;657516;-64
2022/07/01 06:45:24;;;;;;;17.30;8.35;;;27.40;94.30;;;;;;4431976;28;657926;-64
2022/07/01 06:48:11;;;;;;;15.18;8.90;;;27.40;89.80;;;;;;4413144;28;657690;-64
2022/07/01 06:50:58;;;;;;;13.10;8.35;;;27.60;90.20;;;;;;4431697;28;659026;-64
2022/07/01 06:53:46;;;;;;;13.15;8.00;;;27.90;87.00;;;;;;4411710;28;658022;-65
2022/07/01 06:56:33;;;;;;;19.50;9.15;;;28.00;81.90;;;;;;4432123;28;659269;-64
2022/07/01 06:59:22;;;;;;;10.25;7.25;;;28.30;84.90;;;;;;4412772;28;657956;-64
2022/07/01 07:02:09;;;;;;;10.93;8.50;;;28.40;72.50;;;;;;4431301;28;657734;-64
2022/07/01 07:04:57;;;;;;;11.65;7.43;;;28.40;77.10;;;;;;4412491;28;657778;-64
2022/07/01 07:07:45;;;;;;;11.43;7.82;;;28.50;73.80;;;;;;4427205;28;657614;-65
2022/07/01 07:10:32;;;;;;;12.73;8.30;;;28.50;74.00;;;;;;4431684;28;658565;-64
2022/07/01 07:13:19;;;;;;;11.30;8.00;;;28.70;80.10;;;;;;4431638;28;657761;-64
2022/07/01 07:16:08;;;;;;;16.48;7.70;;;29.00;73.90;;;;;;4412840;28;657816;-64
2022/07/01 07:18:55;;;;;;;8.80;7.25;;;29.20;73.10;;;;;;4414921;28;657540;-65
2022/07/01 07:21:42;;;;;;;13.02;7.40;;;29.40;71.30;;;;;;4436571;28;656676;-64
2022/07/01 07:24:29;;;;;;;8.77;6.80;;;29.70;71.50;;;;;;4431507;28;658366;-64
2022/07/01 07:27:16;;;;;;;13.40;7.18;;;29.70;69.10;;;;;;4417345;28;656224;-64
2022/07/01 07:30:04;;;;;;;10.82;6.82;;;29.90;63.60;;;;;;4434305;28;658576;-64
2022/07/01 07:32:52;;;;;;;9.38;6.47;;;30.00;63.10;;;;;;4415335;28;657391;-64
2022/07/01 07:35:40;;;;;;;12.60;6.47;;;30.00;59.70;;;;;;4433617;28;656512;-65
2022/07/01 07:38:27;;;;;;;11.32;7.10;;;30.20;61.20;;;;;;4438127;28;657569;-64
2022/07/01 07:41:14;;;;;;;11.77;7.03;;;30.30;63.70;;;;;;4434139;28;657907;-64
2022/07/01 07:44:01;;;;;;;9.15;7.68;;;30.50;61.30;;;;;;4415280;28;658505;-64
2022/07/01 07:46:49;;;;;;;12.48;7.97;;;30.40;62.10;;;;;;4405911;28;656906;-64
2022/07/01 07:49:37;;;;;;;10.40;8.32;;;30.50;64.70;;;;;;4382319;28;657533;-65
2022/07/01 07:52:24;;;;;;;11.13;7.93;;;30.80;60.50;;;;;;4400786;28;658042;-64
2022/07/01 07:55:11;;;;;;;11.37;8.00;;;30.80;62.20;;;;;;4380391;28;657840;-65
2022/07/01 07:57:58;;;;;;;10.95;8.10;;;31.20;64.10;;;;;;4400902;28;658645;-64
2022/07/01 08:00:45;;;;;;;14.38;7.60;;;31.30;60.30;;;;;;4382125;28;657712;-65
2022/07/01 08:03:35;;;;;;;13.02;7.72;;;30.50;59.50;;;;;;4400378;28;658899;-64
2022/07/01 08:06:23;;;;;;;24.40;9.60;;;30.70;60.90;;;;;;4378001;28;658664;-64
2022/07/01 08:09:10;;;;;;;12.20;7.55;;;31.20;63.30;;;;;;4381954;28;658429;-65
2022/07/01 08:11:57;;;;;;;11.63;6.85;;;31.60;60.10;;;;;;4400424;28;658774;-64
2022/07/01 08:14:44;;;;;;;11.60;6.55;;;32.00;56.90;;;;;;4400588;28;657723;-64
2022/07/01 08:17:32;;;;;;;10.15;6.35;;;31.60;53.20;;;;;;4381790;28;658723;-64
2022/07/01 08:20:19;;;;;;;8.00;6.38;;;31.90;55.60;;;;;;4400278;28;657856;-64
2022/07/01 08:23:07;;;;;;;9.85;6.45;;;32.00;51.40;;;;;;4381901;28;656526;-64
2022/07/01 08:25:54;;;;;;;7.40;6.10;;;32.20;53.50;;;;;;4400916;28;656447;-64
2022/07/01 08:28:42;;;;;;;8.63;6.72;;;32.20;50.70;;;;;;4382529;28;656704;-64
2022/07/01 08:31:29;;;;;;;9.70;6.75;;;32.30;50.80;;;;;;4416978;28;656926;-64
2022/07/01 08:34:16;;;;;;;7.97;6.43;;;31.70;52.30;;;;;;4396753;28;658479;-64
2022/07/01 08:37:04;;;;;;;13.75;6.22;;;32.20;52.70;;;;;;4416634;28;657788;-64
2022/07/01 08:39:52;;;;;;;9.77;5.93;;;32.30;52.00;;;;;;4392880;28;657729;-65
2022/07/01 08:42:39;;;;;;;7.88;6.65;;;32.40;50.90;;;;;;4416726;28;656942;-65
2022/07/01 08:45:27;;;;;;;13.98;5.70;;;32.90;53.30;;;;;;4398006;28;656670;-64
2022/07/01 08:48:14;;;;;;;15.53;6.10;;;33.40;50.60;;;;;;4416465;28;657757;-64
2022/07/01 08:51:03;;;;;;;10.17;5.83;;;33.00;50.00;;;;;;4394481;28;658124;-64
2022/07/01 08:53:51;;;;;;;14.57;6.40;;;33.50;49.80;;;;;;4397518;28;657908;-64
2022/07/01 08:56:42;;;;;;;9.07;6.10;;;33.30;49.00;;;;;;4416085;28;658099;-64
2022/07/01 08:59:29;;;;;;;14.43;7.47;;;33.00;50.70;;;;;;4394567;28;657336;-64
2022/07/01 09:02:16;;;;;;;;;;;32.90;52.00;;;;;;4398223;28;657619;-64
2022/07/01 09:05:06;;;;;;;;;;;33.00;50.70;;;;;;4507805;28;582927;-64
2022/07/01 09:07:56;;;;;;;;;;;32.90;50.90;;;;;;4487607;28;582044;-64
2022/07/01 09:10:43;;;;;;;;;;;32.90;49.80;;;;;;4483939;28;583146;-64
2022/07/01 09:13:32;;;;;;;;;;;33.20;49.90;;;;;;4487753;28;582007;-64
2022/07/01 09:16:19;;;;;;;;;;;32.90;49.70;;;;;;4503920;28;581842;-64
2022/07/01 09:19:05;;;;;;;;;;;32.80;51.50;;;;;;4488239;28;581751;-64
2022/07/01 09:21:53;;;;;;;;;;;33.20;49.70;;;;;;4503827;28;582644;-64
2022/07/01 09:24:41;;;;;;;;;;;33.40;51.40;;;;;;4487452;28;581461;-65
2022/07/01 09:27:28;;;;;;;;;;;33.30;50.40;;;;;;4503670;28;582446;-64
2022/07/01 09:30:16;;;;;;;;;;;33.30;49.80;;;;;;4498002;28;581631;-64
2022/07/01 09:33:10;;;;;;;;;;;34.10;51.80;;;;;;4520493;28;583022;-64
2022/07/01 09:35:59;;;;;;;;;;;33.70;49.40;;;;;;4480135;28;583166;-65
2022/07/01 09:38:46;;;;;;;;;;;32.80;51.10;;;;;;4503956;28;581734;-64
2022/07/01 09:41:36;;;;;;;;;;;33.60;48.90;;;;;;4523941;28;582030;-64
2022/07/01 09:44:23;;;;;;;;;;;34.00;46.90;;;;;;4499860;28;583350;-64
2022/07/01 09:47:11;;;;;;;;;;;33.80;45.30;;;;;;4468474;28;581853;-64
2022/07/01 09:49:58;;;;;;;;;;;34.10;45.90;;;;;;4484519;28;582996;-64
2022/07/01 09:52:45;;;;;;;;;;;33.50;45.30;;;;;;4468552;28;581713;-64
2022/07/01 09:55:32;;;;;;;;;;;34.30;45.10;;;;;;4488993;28;582136;-64
2022/07/01 09:58:19;;;;;;;;;;;34.80;46.30;;;;;;4484838;28;581751;-64
2022/07/01 10:01:07;;;;;;;;;;;34.70;44.50;;;;;;4467679;28;581852;-64
2022/07/01 10:03:55;;;;;;;;;;;34.40;44.70;;;;;;4484762;28;581928;-64
2022/07/01 10:07:03;;;;;;;;;;;34.50;43.60;;;;;;4467813;28;582500;-64
2022/07/01 10:09:57;;;;;;;8.80;5.70;;;34.00;43.10;;;;;;4448263;28;582009;-64
2022/07/01 10:12:46;;;;;;;11.37;5.03;;;34.20;43.60;;;;;;4375220;28;656363;-64
2022/07/01 10:15:33;;;;;;;12.32;5.30;;;35.00;44.10;;;;;;4374054;28;658514;-64
2022/07/01 10:18:21;;;;;;;12.27;5.28;;;35.60;44.80;;;;;;4377600;28;657628;-64
2022/07/01 10:21:11;;;;;;;9.57;5.80;;;36.00;43.60;;;;;;4396523;28;658370;-64
2022/07/01 10:24:12;;;;;;;15.63;5.65;;;36.10;44.30;;;;;;4374537;28;657499;-64
2022/07/01 10:26:59;;;;;;;8.40;5.70;;;36.10;43.70;;;;;;4373948;28;657608;-64
2022/07/01 10:29:46;;;;;;;9.80;5.60;;;36.60;43.00;;;;;;4374812;28;657254;-64
2022/07/01 10:32:33;;;;;;;11.90;5.88;;;36.60;43.70;;;;;;4397427;28;658019;-64
2022/07/01 10:35:20;;;;;;;13.07;5.63;;;35.40;42.80;;;;;;4377610;28;657205;-64
2022/07/01 10:38:12;;;;;;;11.50;5.47;;;36.30;44.70;;;;;;4396141;28;658826;-64
2022/07/01 10:41:09;;;;;;;13.70;5.82;;;36.60;43.00;;;;;;4373552;28;657336;-64
2022/07/01 10:43:56;;;;;;;9.15;5.43;;;36.50;42.60;;;;;;4350941;28;658540;-64
2022/07/01 10:46:44;;;;;;;13.60;5.07;;;36.80;43.10;;;;;;4411920;28;657564;-64
2022/07/01 10:50:08;;;;;;;16.40;5.33;;;37.30;40.90;;;;;;4391369;28;659158;-64
2022/07/01 10:53:05;;;;;;;17.00;5.53;;;36.90;43.50;;;;;;4302244;28;658277;-65
2022/07/01 10:55:54;;;;;;;13.00;5.78;;;37.30;43.10;;;;;;4367764;28;658704;-64
2022/07/01 10:58:41;;;;;;;10.95;5.68;;;36.40;42.00;;;;;;4394773;28;658160;-64
2022/07/01 11:01:28;;;;;;;10.23;5.93;;;36.50;41.90;;;;;;4413194;28;658733;-64
2022/07/01 11:04:15;;;;;;;13.45;5.93;;;35.80;42.20;;;;;;4394441;28;657854;-65
2022/07/01 11:07:03;;;;;;;11.77;5.80;;;36.40;43.10;;;;;;4413353;28;658598;-64
2022/07/01 11:09:50;;;;;;;12.07;6.10;;;35.90;46.10;;;;;;4394830;28;657571;-65
2022/07/01 11:12:39;;;;;;;13.77;5.70;;;36.40;45.50;;;;;;4417739;28;658425;-64
2022/07/01 11:15:27;;;;;;;13.00;5.50;;;36.80;43.10;;;;;;4394576;28;657673;-64
2022/07/01 11:18:14;;;;;;;;;;;37.10;42.00;;;;;;4417751;28;657626;-64
2022/07/01 11:21:08;;;;;;;;;;;37.20;41.50;;;;;;4485138;28;582770;-64
2022/07/01 11:23:55;;;;;;;;;;;36.70;39.50;;;;;;4465192;28;581688;-65
2022/07/01 11:26:42;;;;;;;16.73;4.88;;;36.50;39.90;;;;;;4505180;28;581665;-63
2022/07/01 11:29:30;;;;;;;9.57;4.90;;;36.70;39.90;;;;;;4413092;28;658561;-64
2022/07/01 11:32:25;;;;;;;15.25;5.28;;;36.80;40.40;;;;;;4391825;28;657504;-64
2022/07/01 11:41:26;;;;;;;7.83;5.03;;;36.40;41.10;;;;;;4371453;28;657762;-64
2022/07/01 11:44:13;;;;;;;9.33;5.33;;;36.60;42.20;;;;;;4413976;28;657982;-63
2022/07/01 11:47:02;;;;;;;9.50;5.25;;;35.80;42.60;;;;;;4412179;28;657300;-64
2022/07/01 11:49:49;;;;;;;8.85;5.10;;;35.90;42.10;;;;;;4428348;28;656619;-64
2022/07/01 11:52:37;;;;;;;10.82;5.47;;;35.70;41.90;;;;;;4413031;28;656408;-64
2022/07/01 11:55:25;;;;;;;10.35;5.20;;;35.30;42.20;;;;;;4429872;28;657752;-63
2022/07/01 11:58:12;;;;;;;12.30;5.55;;;35.00;43.10;;;;;;4407452;28;658690;-63
2022/07/01 12:00:59;;;;;;;16.20;5.43;;;35.20;41.30;;;;;;4430457;28;657797;-63
2022/07/01 12:03:47;;;;;;;14.45;5.72;;;35.90;41.80;;;;;;4409807;28;658080;-64
2022/07/01 12:06:34;;;;;;;10.43;5.45;;;36.40;41.80;;;;;;4430279;28;657626;-64
2022/07/01 12:09:22;;;;;;;19.30;5.68;;;36.90;42.00;;;;;;4411286;28;658693;-64
2022/07/01 12:12:15;;;;;;;11.40;5.40;;;37.60;42.10;;;;;;4432110;28;657626;-63
2022/07/01 12:15:03;;;;;;;8.23;5.20;;;37.80;38.30;;;;;;4410525;28;658138;-63
2022/07/01 12:17:50;;;;;;;10.85;5.05;;;37.40;38.50;;;;;;4425165;28;656205;-64
2022/07/01 12:20:39;;;;;;;8.43;6.20;;;37.00;38.50;;;;;;4437389;28;657301;-64
2022/07/01 12:23:26;;;;;;;6.22;4.93;;;37.20;40.80;;;;;;4415998;28;657297;-63
2022/07/01 12:26:13;;;;;;;16.77;5.32;;;37.70;41.00;;;;;;4438437;28;658213;-64
2022/07/01 12:29:00;;;;;;;15.45;5.18;;;37.60;40.20;;;;;;4418765;28;657482;-64
2022/07/01 12:31:57;;;;;;;9.63;5.00;;;37.70;39.60;;;;;;4433192;28;658760;-63
2022/07/01 12:34:47;;;;;;;14.68;5.18;;;38.10;40.00;;;;;;4407902;28;656858;-64
2022/07/01 12:37:36;;;;;;;13.30;5.40;;;38.40;39.50;;;;;;4432919;28;657929;-64
2022/07/01 12:40:24;;;;;;;11.65;5.03;;;36.90;38.70;;;;;;4410375;28;659363;-63
2022/07/01 12:43:23;;;;;;;13.93;5.20;;;36.30;42.10;;;;;;4414683;28;658048;-63
2022/07/01 12:46:10;;;;;;;10.80;4.93;;;37.20;39.40;;;;;;4368645;28;658188;-63
2022/07/01 12:48:58;;;;;;;;;;;37.00;39.60;;;;;;4400348;28;659400;-63
2022/07/01 12:51:45;;;;;;;13.07;4.30;;;36.90;40.90;;;;;;4480698;28;581867;-64
2022/07/01 12:54:34;;;;;;;9.52;5.05;;;37.10;42.70;;;;;;4404136;28;658247;-63
2022/07/01 12:57:30;;;;;;;13.57;5.35;;;37.70;37.90;;;;;;4382256;28;656447;-63
2022/07/01 13:00:18;;;;;;;10.70;4.70;;;37.90;38.40;;;;;;4381158;28;658009;-64
2022/07/01 13:03:06;;;;;;;13.23;4.78;;;37.80;37.60;;;;;;4390884;28;657598;-64
2022/07/01 13:05:54;;;;;;;11.35;4.93;;;37.80;37.30;;;;;;4399908;28;658239;-63
2022/07/01 13:08:41;;;;;;;10.15;4.55;;;36.90;38.20;;;;;;4381170;28;657583;-63
2022/07/01 13:11:29;;;;;;;11.20;4.50;;;37.40;36.80;;;;;;4401506;28;658028;-62
2022/07/01 13:14:16;;;;;;;9.77;4.37;;;37.10;36.90;;;;;;4377014;28;658901;-65
2022/07/01 13:17:04;;;;;;;7.35;4.05;;;36.40;38.80;;;;;;4400425;28;658395;-65
2022/07/01 13:19:51;;;;;;;7.20;4.72;;;36.30;38.30;;;;;;4381930;28;656416;-65
2022/07/01 13:22:38;;;;;;;7.80;4.15;;;36.60;37.70;;;;;;4403108;28;657571;-62
2022/07/01 13:25:26;;;;;;;11.55;4.80;;;37.20;39.80;;;;;;4386434;28;657156;-64
2022/07/01 13:28:14;;;;;;;15.55;4.82;;;37.00;37.40;;;;;;4402432;28;657995;-63
2022/07/01 13:31:01;;;;;;;10.73;4.57;;;37.00;38.90;;;;;;4391690;28;657752;-63
2022/07/01 13:33:48;;;;;;;10.23;4.30;;;37.30;40.30;;;;;;4414325;28;658047;-63
2022/07/01 13:36:35;;;;;;;8.48;4.57;;;37.70;35.00;;;;;;4395617;28;657565;-64
2022/07/01 13:39:22;;;;;;;7.13;4.53;;;37.00;37.80;;;;;;4415535;28;658079;-63
2022/07/01 13:42:10;;;;;;;13.85;4.38;;;37.90;35.10;;;;;;4410943;28;656309;-65
2022/07/01 13:44:59;;;;;;;10.20;4.23;;;37.80;36.30;;;;;;4420082;28;658491;-63
2022/07/01 13:47:47;;;;;;;7.43;4.35;;;37.20;34.30;;;;;;4407649;28;658316;-63
2022/07/01 13:50:34;;;;;;;6.65;4.15;;;37.20;36.10;;;;;;4430870;28;656899;-63
2022/07/01 13:53:21;;;;;;;7.50;4.43;;;37.10;36.10;;;;;;4414062;28;656734;-63
2022/07/01 13:56:08;;;;;;;12.02;4.43;;;37.60;35.80;;;;;;4432684;28;657248;-64
2022/07/01 13:58:55;;;;;;;8.87;4.30;;;37.90;35.80;;;;;;4412732;28;657968;-65
2022/07/01 14:01:44;;;;;;;15.85;4.10;;;37.80;34.30;;;;;;4432479;28;657963;-64
2022/07/01 14:04:31;;;;;;;9.35;4.38;;;38.20;33.90;;;;;;4411722;28;657695;-64
2022/07/01 14:07:18;;;;;;;10.98;4.35;;;37.70;35.10;;;;;;4432554;28;657301;-64
2022/07/01 14:10:06;;;;;;;7.80;4.18;;;37.70;34.70;;;;;;4412295;28;657581;-64
2022/07/01 14:12:53;;;;;;;8.65;3.95;;;37.70;38.10;;;;;;4432460;28;657791;-63
2022/07/01 14:15:40;;;;;;;10.73;3.85;;;38.00;34.40;;;;;;4413932;28;657186;-64
2022/07/01 14:18:29;;;;;;;13.93;4.05;;;38.50;35.30;;;;;;4431166;28;658910;-64
2022/07/01 14:21:16;;;;;;;9.20;4.20;;;37.30;32.80;;;;;;4412352;28;658272;-64
2022/07/01 14:24:04;;;;;;;11.05;4.10;;;36.70;34.40;;;;;;4432232;28;656676;-63
2022/07/01 14:26:51;;;;;;;9.40;4.00;;;36.80;36.90;;;;;;4410186;28;657622;-64
2022/07/01 14:29:39;;;;;;;7.88;3.95;;;36.50;37.20;;;;;;4431991;28;657430;-64
2022/07/01 14:32:27;;;;;;;10.23;4.28;;;37.20;37.70;;;;;;4413156;28;656660;-64
2022/07/01 14:35:16;;;;;;;6.70;4.35;;;37.60;36.80;;;;;;4428609;28;657662;-65
2022/07/01 14:38:04;;;;;;;9.70;4.18;;;36.40;39.20;;;;;;4431774;28;656631;-64
2022/07/01 14:40:51;;;;;;;8.00;4.07;;;36.30;37.70;;;;;;4413168;28;656603;-64
2022/07/01 14:43:38;;;;;;;6.95;3.83;;;36.50;37.80;;;;;;4432567;28;658070;-63